createdAt,value
2023-04-18T00:02:18.741Z,7.68
2023-04-18T00:04:45.746Z,7.93
2023-04-18T00:07:14.616Z,7.30
2023-04-18T00:09:44.714Z,6.68
2023-04-18T00:12:11.451Z,7.95
2023-04-18T00:14:38.133Z,7.43
2023-04-18T00:17:06.004Z,7.47
2023-04-18T00:19:32.618Z,8.00
2023-04-18T00:21:59.103Z,7.05
2023-04-18T00:24:25.673Z,7.20
2023-04-18T00:26:52.135Z,7.13
2023-04-18T00:29:18.693Z,6.97
2023-04-18T00:31:46.129Z,7.20
2023-04-18T00:34:12.858Z,7.47
2023-04-18T00:36:39.586Z,6.13
2023-04-18T00:39:06.120Z,7.13
2023-04-18T00:41:32.590Z,6.10
2023-04-18T00:43:59.126Z,7.07
2023-04-18T00:46:25.661Z,6.93
2023-04-18T00:48:52.310Z,6.22
2023-04-18T00:51:19.417Z,6.32
2023-04-18T00:53:46.005Z,5.82
2023-04-18T00:56:12.606Z,5.65
2023-04-18T00:58:39.234Z,6.10
2023-04-18T01:01:05.940Z,5.80
2023-04-18T01:03:32.539Z,5.97
2023-04-18T01:05:59.294Z,6.18
2023-04-18T01:08:25.800Z,7.57
2023-04-18T01:10:52.316Z,6.13
2023-04-18T01:13:20.639Z,6.00
2023-04-18T01:15:49.141Z,5.95
2023-04-18T01:18:16.520Z,6.20
2023-04-18T01:20:46.068Z,5.32
2023-04-18T01:23:13.099Z,5.60
2023-04-18T01:25:39.691Z,5.47
2023-04-18T01:28:06.693Z,6.10
2023-04-18T01:30:34.029Z,6.05
2023-04-18T01:33:01.623Z,5.90
2023-04-18T01:35:28.594Z,5.60
2023-04-18T01:37:55.156Z,5.78
2023-04-18T01:40:21.967Z,5.85
2023-04-18T01:42:48.593Z,5.40
2023-04-18T01:45:16.216Z,5.88
2023-04-18T01:47:43.708Z,5.50
2023-04-18T01:50:10.514Z,5.30
2023-04-18T01:52:37.002Z,5.63
2023-04-18T01:55:03.682Z,5.88
2023-04-18T01:57:30.809Z,6.57
2023-04-18T01:59:57.410Z,5.95
2023-04-18T02:02:24.003Z,5.13
2023-04-18T02:04:50.574Z,5.75
2023-04-18T02:07:17.079Z,6.03
2023-04-18T02:09:43.627Z,6.18
2023-04-18T02:12:10.179Z,5.82
2023-04-18T02:14:36.844Z,5.95
2023-04-18T02:17:03.341Z,5.57
2023-04-18T02:19:30.465Z,6.30
2023-04-18T02:21:57.037Z,5.65
2023-04-18T02:24:23.602Z,6.38
2023-04-18T02:26:50.664Z,5.82
2023-04-18T02:29:17.162Z,6.78
2023-04-18T02:31:43.686Z,6.72
2023-04-18T02:34:10.225Z,6.47
2023-04-18T02:36:36.752Z,6.45
2023-04-18T02:39:03.377Z,5.97
2023-04-18T02:41:29.876Z,6.70
2023-04-18T02:43:56.389Z,6.13
2023-04-18T02:46:23.025Z,7.00
2023-04-18T02:48:49.613Z,6.25
2023-04-18T02:51:16.384Z,6.90
2023-04-18T02:53:42.908Z,6.68
2023-04-18T02:56:09.427Z,7.15
2023-04-18T02:58:35.926Z,6.50
2023-04-18T03:01:02.546Z,6.68
2023-04-18T03:03:29.113Z,6.35
2023-04-18T03:05:55.603Z,7.18
2023-04-18T03:08:22.085Z,7.47
2023-04-18T03:10:48.589Z,6.95
2023-04-18T03:13:16.232Z,7.18
2023-04-18T03:15:42.849Z,8.05
2023-04-18T03:18:09.416Z,7.07
2023-04-18T03:20:35.926Z,7.03
2023-04-18T03:23:02.374Z,7.45
2023-04-18T03:25:29.141Z,7.68
2023-04-18T03:27:55.748Z,7.10
2023-04-18T03:30:22.548Z,7.40
2023-04-18T03:32:49.262Z,7.00
2023-04-18T03:35:15.912Z,7.75
2023-04-18T03:37:42.467Z,7.38
2023-04-18T03:40:09.482Z,7.28
2023-04-18T03:42:36.045Z,7.43
2023-04-18T03:45:02.878Z,7.90
2023-04-18T03:47:31.754Z,7.38
2023-04-18T03:49:58.227Z,8.02
2023-04-18T03:52:24.704Z,7.95
2023-04-18T03:54:51.212Z,7.88
2023-04-18T03:57:17.687Z,7.55
2023-04-18T03:59:46.093Z,7.80
2023-04-18T04:02:13.969Z,8.30
2023-04-18T04:04:40.639Z,8.05
2023-04-18T04:07:07.257Z,8.68
2023-04-18T04:09:33.754Z,7.88
2023-04-18T04:12:00.265Z,8.10
2023-04-18T04:14:26.793Z,7.72
2023-04-18T04:16:53.405Z,8.25
2023-04-18T04:19:19.945Z,8.07
2023-04-18T04:21:46.525Z,7.63
2023-04-18T04:24:13.256Z,8.50
2023-04-18T04:26:40.102Z,8.05
2023-04-18T04:29:06.584Z,8.48
2023-04-18T04:31:33.090Z,8.20
2023-04-18T04:33:59.651Z,9.38
2023-04-18T04:36:26.223Z,9.88
2023-04-18T04:38:52.831Z,9.23
2023-04-18T04:41:19.444Z,8.73
2023-04-18T04:43:45.975Z,7.45
2023-04-18T04:46:12.646Z,8.82
2023-04-18T04:48:39.353Z,8.77
2023-04-18T04:51:05.892Z,9.77
2023-04-18T04:53:32.461Z,9.60
2023-04-18T04:55:59.126Z,9.52
2023-04-18T04:58:25.826Z,9.63
2023-04-18T05:00:52.466Z,8.95
2023-04-18T05:03:19.525Z,8.88
2023-04-18T05:05:46.351Z,8.60
2023-04-18T05:08:12.900Z,8.60
2023-04-18T05:10:39.410Z,8.73
2023-04-18T05:13:05.975Z,8.63
2023-04-18T05:15:32.469Z,8.75
2023-04-18T05:17:59.032Z,8.38
2023-04-18T05:20:25.643Z,8.73
2023-04-18T05:22:52.165Z,9.25
2023-04-18T05:25:19.511Z,8.40
2023-04-18T05:27:46.163Z,8.30
2023-04-18T05:30:12.772Z,9.38
2023-04-18T05:32:39.351Z,8.77
2023-04-18T05:35:06.962Z,8.32
2023-04-18T05:37:33.937Z,9.63
2023-04-18T05:40:01.136Z,9.43
2023-04-18T05:42:27.780Z,9.13
2023-04-18T05:44:54.255Z,9.25
2023-04-18T05:47:20.799Z,9.25
2023-04-18T05:49:47.348Z,9.35
2023-04-18T05:52:13.822Z,8.70
2023-04-18T05:54:40.350Z,10.35
2023-04-18T05:57:06.881Z,9.30
2023-04-18T05:59:33.364Z,9.02
2023-04-18T06:02:00.009Z,9.73
2023-04-18T06:04:26.651Z,9.85
2023-04-18T06:06:53.269Z,9.77
2023-04-18T06:09:19.732Z,9.48
2023-04-18T06:11:46.295Z,9.45
2023-04-18T06:14:13.082Z,9.13
2023-04-18T06:16:40.022Z,9.18
2023-04-18T06:19:06.537Z,9.60
2023-04-18T06:21:33.018Z,9.35
2023-04-18T06:23:59.514Z,9.30
2023-04-18T06:26:25.991Z,9.23
2023-04-18T06:28:52.514Z,9.20
2023-04-18T06:31:19.089Z,8.57
2023-04-18T06:33:45.619Z,9.02
2023-04-18T06:36:12.129Z,8.18
2023-04-18T06:38:38.667Z,9.27
2023-04-18T06:41:05.146Z,7.88
2023-04-18T06:43:31.651Z,7.90
2023-04-18T06:45:58.975Z,9.60
2023-04-18T06:48:25.557Z,9.50
2023-04-18T06:50:52.079Z,8.80
2023-04-18T06:53:18.667Z,8.65
2023-04-18T06:55:45.156Z,9.00
2023-04-18T06:58:12.318Z,8.07
2023-04-18T07:00:39.141Z,8.70
2023-04-18T07:03:06.585Z,8.10
2023-04-18T07:05:33.650Z,8.70
2023-04-18T07:40:24.664Z,6.63
2023-04-18T07:42:51.181Z,7.95
2023-04-18T07:45:17.684Z,8.70
2023-04-18T07:47:44.285Z,8.20
2023-04-18T07:50:11.264Z,7.55
2023-04-18T07:52:39.332Z,9.07
2023-04-18T07:55:07.834Z,7.40
2023-04-18T07:57:34.395Z,6.75
2023-04-18T08:00:00.939Z,7.43
2023-04-18T08:02:27.590Z,7.88
2023-04-18T08:04:54.434Z,6.60
2023-04-18T08:07:21.143Z,7.25
2023-04-18T08:09:47.813Z,6.07
2023-04-18T08:12:14.282Z,6.75
2023-04-18T08:14:40.784Z,6.35
2023-04-18T08:17:07.453Z,5.85
2023-04-18T08:19:33.970Z,5.55
2023-04-18T08:22:10.514Z,6.10
2023-04-18T08:24:41.673Z,6.35
2023-04-18T08:27:12.995Z,6.18
2023-04-18T08:29:39.495Z,6.32
2023-04-18T08:35:48.372Z,5.97
2023-04-18T08:38:14.955Z,5.47
2023-04-18T09:06:22.650Z,4.97
2023-04-18T09:08:56.534Z,5.03
2023-04-18T09:11:28.031Z,4.32
2023-04-18T09:13:56.000Z,4.68
2023-04-18T09:16:23.359Z,4.72
2023-04-18T09:19:12.382Z,4.97
2023-04-18T09:41:30.605Z,4.80
2023-04-18T09:44:13.931Z,5.60
2023-04-18T09:46:42.240Z,4.40
2023-04-18T09:49:11.117Z,5.47
2023-04-18T09:51:39.942Z,4.55
2023-04-18T09:54:07.409Z,5.70
2023-04-18T09:56:35.714Z,5.53
2023-04-18T09:59:08.484Z,5.60
2023-04-18T10:01:35.837Z,5.18
2023-04-18T10:04:03.916Z,5.28
2023-04-18T10:06:33.670Z,5.30
2023-04-18T10:09:03.110Z,6.05
2023-04-18T10:11:32.763Z,5.75
2023-04-18T10:14:04.498Z,5.53
2023-04-18T10:16:32.546Z,5.00
2023-04-18T10:19:20.150Z,6.53
2023-04-18T10:21:53.992Z,5.32
2023-04-18T10:24:45.447Z,5.93
2023-04-18T10:27:12.077Z,5.53
2023-04-18T10:29:52.099Z,5.60
2023-04-18T10:32:21.752Z,6.13
2023-04-18T10:34:49.652Z,4.82
2023-04-18T10:37:16.245Z,5.78
2023-04-18T10:40:00.199Z,6.22
2023-04-18T10:42:57.722Z,5.85
2023-04-18T10:45:25.642Z,5.57
2023-04-18T10:48:27.599Z,4.93
2023-04-18T10:51:16.350Z,5.88
2023-04-18T10:53:53.768Z,6.22
2023-04-18T10:56:20.542Z,5.15
2023-04-18T10:58:52.296Z,5.97
2023-04-18T11:01:28.524Z,5.65
2023-04-18T11:03:57.113Z,5.10
2023-04-18T11:06:24.164Z,5.53
2023-04-18T11:08:51.066Z,5.30
2023-04-18T11:11:17.534Z,6.18
2023-04-18T11:13:59.003Z,5.07
2023-04-18T11:16:30.690Z,5.95
2023-04-18T11:18:57.599Z,5.05
2023-04-18T11:21:30.306Z,6.00
2023-04-18T11:23:58.026Z,5.57
2023-04-18T11:26:25.874Z,5.70
2023-04-18T11:28:56.584Z,5.63
2023-04-18T11:31:23.766Z,5.75
2023-04-18T11:33:51.579Z,5.63
2023-04-18T11:36:18.281Z,6.22
2023-04-18T11:38:44.965Z,5.90
2023-04-18T11:41:15.720Z,6.15
2023-04-18T11:43:43.593Z,6.43
2023-04-18T11:46:10.218Z,6.07
2023-04-18T11:48:38.046Z,6.57
2023-04-18T11:51:06.388Z,7.18
2023-04-18T11:53:36.913Z,7.80
2023-04-18T11:56:04.785Z,6.65
2023-04-18T11:58:35.151Z,6.57
2023-04-18T12:01:20.233Z,7.00
2023-04-18T12:04:07.407Z,6.82
2023-04-18T12:06:46.975Z,6.72
2023-04-18T12:09:14.551Z,6.50
2023-04-18T12:11:41.607Z,6.85
2023-04-18T12:14:22.013Z,6.43
2023-04-18T12:16:49.632Z,7.38
2023-04-18T12:19:16.492Z,7.50
2023-04-18T12:22:15.387Z,7.65
2023-04-18T12:24:42.013Z,7.45
2023-04-18T12:27:08.599Z,7.25
2023-04-18T12:29:35.174Z,7.20
2023-04-18T12:32:01.772Z,8.35
2023-04-18T12:34:28.321Z,7.82
2023-04-18T12:36:54.867Z,8.07
2023-04-18T12:39:21.414Z,7.80
2023-04-18T12:41:49.636Z,7.78
2023-04-18T12:44:16.501Z,6.97
2023-04-18T12:46:43.089Z,7.05
2023-04-18T12:49:09.651Z,8.32
2023-04-18T12:51:36.150Z,7.72
2023-04-18T12:54:02.702Z,7.68
2023-04-18T12:56:29.200Z,7.78
2023-04-18T12:58:55.757Z,8.55
2023-04-18T13:01:22.305Z,8.18
2023-04-18T13:03:56.756Z,8.25
2023-04-18T13:06:30.844Z,8.52
2023-04-18T13:08:57.350Z,7.93
2023-04-18T13:11:24.072Z,8.18
2023-04-18T13:13:50.581Z,7.93
2023-04-18T13:16:17.089Z,8.25
2023-04-18T13:18:43.584Z,7.40
2023-04-18T13:21:10.167Z,7.47
2023-04-18T13:23:36.772Z,7.93
2023-04-18T13:26:03.520Z,8.05
2023-04-18T13:28:29.999Z,7.60
2023-04-18T13:30:56.462Z,7.05
2023-04-18T13:33:22.967Z,8.18
2023-04-18T13:35:49.458Z,7.50
2023-04-18T13:38:15.956Z,7.82
2023-04-18T13:40:42.458Z,7.80
2023-04-18T13:43:08.960Z,8.32
2023-04-18T13:45:35.479Z,8.48
2023-04-18T13:48:02.065Z,6.85
2023-04-18T13:50:28.618Z,7.80
2023-04-18T13:52:55.114Z,8.07
2023-04-18T13:55:21.662Z,7.90
2023-04-18T13:57:48.185Z,8.20
2023-04-18T14:00:15.240Z,7.78
2023-04-18T14:02:41.886Z,7.38
2023-04-18T14:05:09.251Z,7.72
2023-04-18T14:07:35.888Z,7.93
2023-04-18T14:10:02.357Z,8.45
2023-04-18T14:12:28.838Z,8.20
2023-04-18T14:14:55.323Z,7.25
2023-04-18T14:17:21.840Z,7.38
2023-04-18T14:19:48.409Z,7.97
2023-04-18T14:22:14.963Z,7.25
2023-04-18T14:24:41.440Z,8.50
2023-04-18T14:27:08.157Z,8.40
2023-04-18T14:29:34.637Z,8.43
2023-04-18T14:32:01.098Z,8.57
2023-04-18T14:34:27.577Z,8.85
2023-04-18T14:36:54.073Z,7.97
2023-04-18T14:39:20.543Z,7.97
2023-04-18T14:41:47.101Z,8.27
2023-04-18T14:44:13.633Z,9.05
2023-04-18T14:46:40.235Z,8.00
2023-04-18T14:49:06.853Z,7.93
2023-04-18T14:51:33.365Z,8.48
2023-04-18T14:53:59.894Z,7.55
2023-04-18T14:56:26.489Z,8.75
2023-04-18T14:58:53.040Z,9.25
2023-04-18T15:01:19.611Z,9.88
2023-04-18T15:03:46.397Z,9.27
2023-04-18T15:06:13.114Z,8.75
2023-04-18T15:08:39.661Z,8.38
2023-04-18T15:11:07.307Z,9.15
2023-04-18T15:13:34.056Z,7.97
2023-04-18T15:16:00.609Z,8.90
2023-04-18T15:18:27.216Z,9.23
2023-04-18T15:20:53.680Z,9.50
2023-04-18T15:23:20.353Z,9.02
2023-04-18T15:25:46.930Z,10.38
2023-04-18T15:28:13.446Z,8.93
2023-04-18T15:30:40.145Z,9.00
2023-04-18T15:33:06.753Z,10.15
2023-04-18T15:35:33.337Z,9.27
2023-04-18T15:37:59.869Z,9.10
2023-04-18T15:40:26.445Z,9.05
2023-04-18T15:42:52.927Z,8.60
2023-04-18T15:45:19.896Z,9.27
2023-04-18T15:47:46.535Z,7.97
2023-04-18T15:50:13.049Z,9.38
2023-04-18T15:52:39.580Z,9.27
2023-04-18T15:55:06.667Z,8.82
2023-04-18T15:57:33.277Z,8.75
2023-04-18T15:59:59.835Z,11.50
2023-04-18T16:02:26.531Z,9.30
2023-04-18T16:04:53.124Z,7.78
2023-04-18T16:07:19.614Z,8.07
2023-04-18T16:09:46.111Z,9.18
2023-04-18T16:12:12.606Z,8.95
2023-04-18T16:14:39.172Z,8.77
2023-04-18T16:17:05.679Z,7.80
2023-04-18T16:19:33.381Z,8.48
2023-04-18T16:22:01.621Z,8.30
2023-04-18T16:24:28.151Z,9.13
2023-04-18T16:26:54.668Z,7.78
2023-04-18T16:29:21.157Z,7.57
2023-04-18T16:31:48.120Z,8.63
2023-04-18T16:34:14.926Z,8.18
2023-04-18T16:36:41.665Z,8.30
2023-04-18T16:39:08.226Z,7.95
2023-04-18T16:41:34.755Z,8.63
2023-04-18T16:44:01.276Z,10.55
2023-04-18T16:46:27.884Z,8.35
2023-04-18T16:48:54.422Z,9.23
2023-04-18T16:51:21.021Z,6.82
2023-04-18T16:53:47.551Z,7.47
2023-04-18T16:56:14.292Z,7.68
2023-04-18T16:58:40.952Z,8.43
2023-04-18T17:01:07.456Z,7.50
2023-04-18T17:03:34.459Z,7.25
2023-04-18T17:06:01.048Z,8.50
2023-04-18T17:08:27.708Z,8.65
2023-04-18T17:10:54.944Z,8.93
2023-04-18T17:13:22.136Z,7.35
2023-04-18T17:15:48.684Z,10.07
2023-04-18T17:18:15.184Z,8.23
2023-04-18T17:20:41.700Z,7.43
2023-04-18T17:23:08.244Z,6.13
2023-04-18T17:25:34.798Z,7.22
2023-04-18T17:28:01.355Z,6.93
2023-04-18T17:30:28.665Z,6.63
2023-04-18T17:32:55.204Z,5.85
2023-04-18T17:35:21.847Z,6.95
2023-04-18T17:37:49.326Z,7.05
2023-04-18T17:40:15.860Z,8.05
2023-04-18T17:42:42.446Z,7.70
2023-04-18T17:45:09.610Z,7.95
2023-04-18T17:47:36.393Z,7.72
2023-04-18T17:50:06.836Z,8.23
2023-04-18T17:52:33.357Z,7.75
2023-04-18T17:55:00.439Z,9.60
2023-04-18T17:57:27.333Z,8.63
2023-04-18T17:59:53.942Z,7.63
2023-04-18T18:02:20.511Z,7.63
2023-04-18T18:04:47.058Z,9.02
2023-04-18T18:07:13.613Z,9.20
2023-04-18T18:09:40.186Z,9.00
2023-04-18T18:12:07.084Z,9.73
2023-04-18T18:14:33.633Z,8.98
2023-04-18T18:17:00.211Z,9.52
2023-04-18T18:19:26.790Z,9.85
2023-04-18T18:21:53.317Z,9.80
2023-04-18T18:24:19.839Z,9.77
2023-04-18T18:26:46.349Z,10.40
2023-04-18T18:29:13.210Z,10.20
2023-04-18T18:31:41.082Z,10.00
2023-04-18T18:34:07.733Z,12.40
2023-04-18T18:36:34.360Z,10.90
2023-04-18T18:39:00.966Z,10.05
2023-04-18T18:41:27.509Z,10.25
2023-04-18T18:43:54.136Z,10.63
2023-04-18T18:46:20.761Z,10.18
2023-04-18T18:48:47.286Z,10.15
2023-04-18T18:51:16.011Z,12.25
2023-04-18T18:53:42.538Z,11.70
2023-04-18T18:56:09.056Z,18.15
2023-04-18T18:58:35.573Z,13.93
2023-04-18T19:01:02.438Z,12.02
2023-04-18T19:03:29.236Z,13.02
2023-04-18T19:05:56.215Z,11.43
2023-04-18T19:08:22.942Z,12.02
2023-04-18T19:10:49.486Z,11.27
2023-04-18T19:13:16.026Z,12.02
2023-04-18T19:15:42.718Z,13.10
2023-04-18T19:18:09.308Z,11.50
2023-04-18T19:20:35.886Z,12.18
2023-04-18T19:23:02.377Z,12.05
2023-04-18T19:25:28.883Z,10.82
2023-04-18T19:27:55.389Z,11.02
2023-04-18T19:30:21.886Z,11.30
2023-04-18T19:32:48.453Z,13.45
2023-04-18T19:35:15.049Z,11.98
2023-04-18T19:37:41.670Z,11.63
2023-04-18T19:40:10.102Z,10.85
2023-04-18T19:42:36.598Z,11.57
2023-04-18T19:45:04.098Z,11.30
2023-04-18T19:47:30.685Z,12.23
2023-04-18T19:49:57.358Z,12.40
2023-04-18T19:52:23.885Z,13.60
2023-04-18T19:54:52.332Z,11.30
2023-04-18T19:57:18.988Z,11.85
2023-04-18T19:59:45.548Z,11.77
2023-04-18T20:02:12.107Z,12.13
2023-04-18T20:04:39.004Z,12.38
2023-04-18T20:07:05.736Z,11.15
2023-04-18T20:09:32.479Z,11.68
2023-04-18T20:11:58.995Z,12.18
2023-04-18T20:14:27.435Z,11.07
2023-04-18T20:16:57.113Z,13.60
2023-04-18T20:19:23.760Z,11.80
2023-04-18T20:21:50.463Z,12.27
2023-04-18T20:24:17.007Z,12.82
2023-04-18T20:26:43.555Z,12.00
2023-04-18T20:29:10.093Z,11.35
2023-04-18T20:31:36.638Z,12.68
2023-04-18T20:34:03.152Z,11.93
2023-04-18T20:36:29.716Z,12.52
2023-04-18T20:38:58.872Z,12.05
2023-04-18T20:41:25.384Z,10.35
2023-04-18T20:43:51.846Z,12.45
2023-04-18T20:46:18.471Z,12.15
2023-04-18T20:48:45.038Z,13.05
2023-04-18T20:51:12.779Z,12.55
2023-04-18T20:53:39.384Z,12.45
2023-04-18T20:56:06.071Z,12.23
2023-04-18T20:58:32.750Z,12.55
2023-04-18T21:00:59.290Z,12.45
2023-04-18T21:03:28.494Z,12.15
2023-04-18T21:05:55.177Z,12.77
2023-04-18T21:08:21.726Z,12.45
2023-04-18T21:10:48.297Z,12.93
2023-04-18T21:13:14.787Z,12.77
2023-04-18T21:15:44.150Z,12.20
2023-04-18T21:18:13.680Z,12.25
2023-04-18T21:36:14.010Z,11.65
2023-04-18T21:38:40.531Z,11.32
2023-04-18T21:41:07.023Z,10.75
2023-04-18T21:43:33.500Z,11.02
2023-04-18T21:45:59.995Z,11.10
2023-04-18T21:48:26.556Z,10.25
2023-04-18T21:50:56.250Z,11.50
2023-04-18T21:53:22.787Z,11.55
2023-04-18T21:55:49.713Z,10.93
2023-04-18T21:58:16.322Z,11.18
2023-04-18T22:00:42.871Z,10.65
2023-04-18T22:03:09.547Z,10.52
2023-04-18T22:05:36.203Z,10.30
2023-04-18T22:08:02.977Z,11.15
2023-04-18T22:10:29.499Z,10.23
2023-04-18T22:12:56.292Z,9.88
2023-04-18T22:15:24.285Z,10.85
2023-04-18T22:17:50.809Z,11.40
2023-04-18T22:20:17.325Z,10.30
2023-04-18T22:22:45.240Z,11.02
2023-04-18T22:25:11.732Z,10.30
2023-04-18T22:27:38.836Z,10.48
2023-04-18T22:30:06.234Z,10.10
2023-04-18T22:32:32.782Z,10.25
2023-04-18T22:34:59.492Z,10.60
2023-04-18T22:37:26.038Z,11.75
2023-04-18T22:39:52.557Z,9.70
2023-04-18T22:42:19.100Z,10.70
2023-04-18T22:44:45.648Z,11.68
2023-04-18T22:47:12.157Z,10.23
2023-04-18T22:49:38.674Z,10.75
2023-04-18T22:52:05.228Z,9.98
2023-04-18T22:54:31.777Z,11.05
2023-04-18T22:56:58.273Z,10.05
2023-04-18T22:59:24.799Z,10.23
2023-04-18T23:01:51.375Z,11.27
2023-04-18T23:04:18.270Z,10.85
2023-04-18T23:06:45.122Z,10.40
2023-04-18T23:09:11.606Z,10.43
2023-04-18T23:11:38.116Z,9.75
2023-04-18T23:14:04.651Z,9.82
2023-04-18T23:16:31.202Z,10.65
2023-04-18T23:18:57.742Z,10.13
2023-04-18T23:21:24.254Z,10.88
2023-04-18T23:23:50.752Z,11.00
2023-04-18T23:26:17.268Z,9.93
2023-04-18T23:28:43.817Z,10.57
2023-04-18T23:31:10.412Z,9.82
2023-04-18T23:33:36.888Z,9.75
2023-04-18T23:36:03.556Z,10.23
2023-04-18T23:38:30.675Z,10.40
2023-04-18T23:40:57.162Z,10.77
2023-04-18T23:43:23.663Z,10.65
2023-04-18T23:45:50.124Z,9.70
2023-04-18T23:48:16.640Z,10.02
2023-04-18T23:50:49.598Z,9.13
2023-04-18T23:53:19.026Z,9.52
2023-04-18T23:55:47.582Z,10.63
